createdAt,value
2018-12-12T00:01:27.412Z,8.78
2018-12-12T00:03:56.736Z,8.30
2018-12-12T00:06:25.400Z,10.58
2018-12-12T00:08:53.980Z,10.40
2018-12-12T00:11:23.028Z,9.45
2018-12-12T00:13:51.573Z,31.17
2018-12-12T00:16:20.562Z,22.27
2018-12-12T00:18:50.287Z,14.50
2018-12-12T00:21:18.779Z,10.98
2018-12-12T00:23:47.526Z,10.60
2018-12-12T00:26:16.785Z,10.00
2018-12-12T00:28:46.137Z,10.23
2018-12-12T00:31:14.640Z,10.68
2018-12-12T00:33:43.389Z,9.55
2018-12-12T00:36:12.875Z,10.20
2018-12-12T00:38:41.766Z,10.80
2018-12-12T00:41:12.198Z,9.98
2018-12-12T00:43:41.444Z,10.63
2018-12-12T00:46:09.947Z,10.25
2018-12-12T00:48:39.951Z,9.60
2018-12-12T00:51:08.499Z,9.13
2018-12-12T00:53:37.424Z,9.03
2018-12-12T00:56:06.081Z,9.75
2018-12-12T00:58:36.485Z,9.45
2018-12-12T01:01:05.132Z,9.63
2018-12-12T01:03:34.421Z,10.30
2018-12-12T01:06:02.947Z,10.85
2018-12-12T01:08:31.514Z,10.03
2018-12-12T01:11:05.630Z,10.48
2018-12-12T01:13:34.503Z,10.18
2018-12-12T01:16:03.249Z,11.03
2018-12-12T01:18:32.772Z,10.93
2018-12-12T01:21:01.393Z,10.85
2018-12-12T01:23:30.214Z,10.23
2018-12-12T01:25:58.736Z,10.90
2018-12-12T01:28:27.283Z,9.38
2018-12-12T01:30:56.642Z,9.40
2018-12-12T01:33:25.664Z,8.88
2018-12-12T01:35:54.688Z,9.33
2018-12-12T01:38:23.212Z,9.70
2018-12-12T01:40:51.730Z,8.65
2018-12-12T01:43:20.331Z,10.00
2018-12-12T01:45:49.613Z,9.45
2018-12-12T01:48:18.300Z,10.93
2018-12-12T01:50:47.039Z,10.82
2018-12-12T01:53:16.041Z,10.58
2018-12-12T01:55:44.448Z,11.53
2018-12-12T01:58:14.534Z,9.88
2018-12-12T02:00:43.568Z,9.15
2018-12-12T02:03:12.414Z,9.35
2018-12-12T02:05:41.802Z,7.95
2018-12-12T02:08:10.442Z,7.20
2018-12-12T02:10:39.036Z,6.75
2018-12-12T02:13:19.820Z,8.88
2018-12-12T02:15:48.243Z,8.25
2018-12-12T02:18:18.555Z,8.55
2018-12-12T02:20:47.624Z,9.33
2018-12-12T02:23:16.556Z,8.58
2018-12-12T02:25:45.089Z,8.15
2018-12-12T02:28:13.812Z,7.70
2018-12-12T02:30:42.411Z,7.35
2018-12-12T02:33:11.546Z,9.10
2018-12-12T02:35:40.310Z,7.30
2018-12-12T02:38:09.817Z,8.93
2018-12-12T02:40:39.792Z,9.85
2018-12-12T02:43:09.175Z,9.20
2018-12-12T02:45:37.789Z,10.30
2018-12-12T02:48:07.878Z,10.10
2018-12-12T02:50:36.539Z,11.12
2018-12-12T02:53:05.414Z,12.78
2018-12-12T02:55:34.366Z,13.20
2018-12-12T02:58:03.134Z,14.85
2018-12-12T03:00:31.681Z,15.53
2018-12-12T03:03:01.328Z,13.60
2018-12-12T03:05:29.888Z,15.03
2018-12-12T03:07:58.570Z,16.05
2018-12-12T03:10:27.239Z,16.57
2018-12-12T03:12:56.477Z,13.88
2018-12-12T03:15:25.002Z,14.50
2018-12-12T03:17:54.088Z,12.50
2018-12-12T03:20:24.935Z,12.55
2018-12-12T03:22:53.902Z,13.32
2018-12-12T03:25:22.605Z,11.97
2018-12-12T03:27:52.451Z,11.93
2018-12-12T03:30:21.801Z,13.45
2018-12-12T03:32:50.642Z,13.40
2018-12-12T03:35:19.357Z,13.58
2018-12-12T03:37:48.097Z,13.38
2018-12-12T03:40:17.438Z,12.75
2018-12-12T03:42:46.612Z,14.80
2018-12-12T03:45:16.260Z,15.05
2018-12-12T03:47:45.561Z,14.60
2018-12-12T03:50:14.638Z,13.95
2018-12-12T03:52:44.590Z,14.15
2018-12-12T03:55:14.134Z,15.03
2018-12-12T03:57:42.943Z,15.45
2018-12-12T04:00:11.935Z,15.83
2018-12-12T04:02:41.093Z,14.58
2018-12-12T04:05:10.638Z,14.60
2018-12-12T04:07:39.284Z,14.95
2018-12-12T04:10:08.482Z,15.03
2018-12-12T04:12:37.529Z,16.12
2018-12-12T04:15:06.680Z,18.50
2018-12-12T04:17:35.147Z,18.27
2018-12-12T04:20:04.362Z,16.75
2018-12-12T04:22:33.188Z,16.27
2018-12-12T04:25:01.978Z,18.35
2018-12-12T04:27:30.938Z,17.73
2018-12-12T04:29:59.388Z,17.27
2018-12-12T04:32:28.151Z,17.52
2018-12-12T04:34:56.848Z,17.07
2018-12-12T04:37:26.866Z,17.48
2018-12-12T04:39:56.154Z,18.80
2018-12-12T04:42:25.150Z,17.92
2018-12-12T04:44:54.055Z,17.80
2018-12-12T04:47:23.739Z,18.90
2018-12-12T04:49:52.453Z,17.05
2018-12-12T04:52:21.370Z,16.02
2018-12-12T04:54:50.282Z,16.77
2018-12-12T04:57:18.823Z,15.80
2018-12-12T04:59:47.298Z,17.65
2018-12-12T05:02:22.762Z,16.50
2018-12-12T05:04:51.763Z,17.77
2018-12-12T05:07:20.132Z,17.85
2018-12-12T05:09:48.993Z,19.37
2018-12-12T05:12:17.490Z,18.82
2018-12-12T05:14:45.946Z,18.65
2018-12-12T05:17:15.872Z,16.65
2018-12-12T05:19:44.412Z,16.80
2018-12-12T05:22:12.873Z,16.30
2018-12-12T05:24:41.476Z,14.87
2018-12-12T05:27:10.028Z,17.67
2018-12-12T05:29:39.155Z,16.62
2018-12-12T05:32:08.078Z,16.35
2018-12-12T05:34:36.975Z,16.93
2018-12-12T05:37:06.202Z,16.32
2018-12-12T05:39:35.806Z,16.27
2018-12-12T05:42:04.246Z,17.82
2018-12-12T05:44:32.680Z,17.05
2018-12-12T05:47:02.042Z,17.15
2018-12-12T05:49:30.633Z,16.40
2018-12-12T05:51:59.204Z,17.80
2018-12-12T05:54:27.824Z,18.82
2018-12-12T05:56:56.602Z,18.87
2018-12-12T05:59:25.230Z,18.85
2018-12-12T06:01:54.054Z,17.92
2018-12-12T06:04:23.590Z,17.70
2018-12-12T06:06:52.899Z,18.40
2018-12-12T06:09:22.168Z,17.37
2018-12-12T06:11:51.480Z,17.87
2018-12-12T06:14:22.505Z,17.62
2018-12-12T06:16:52.257Z,19.48
2018-12-12T06:19:21.890Z,19.12
2018-12-12T06:21:50.764Z,17.70
2018-12-12T06:24:19.439Z,18.92
2018-12-12T06:26:49.191Z,16.27
2018-12-12T17:24:19.417Z,9.45
2018-12-12T17:26:49.598Z,9.65
2018-12-12T17:29:19.498Z,10.00
2018-12-12T17:31:53.120Z,9.20
2018-12-12T17:34:23.052Z,10.10
2018-12-12T17:36:53.115Z,8.45
2018-12-12T17:56:42.460Z,8.65
2018-12-12T17:59:11.962Z,8.55
2018-12-12T18:01:44.839Z,8.53
2018-12-12T18:04:14.633Z,8.45
2018-12-12T18:06:43.741Z,8.10
2018-12-12T18:09:12.708Z,7.65
2018-12-12T18:11:42.264Z,7.70
2018-12-12T18:14:11.588Z,8.03
2018-12-12T18:16:41.130Z,7.40
2018-12-12T18:19:10.194Z,7.83
2018-12-12T18:21:38.932Z,7.25
2018-12-12T18:24:09.740Z,6.95
2018-12-12T18:26:38.242Z,7.03
2018-12-12T18:29:07.439Z,8.20
2018-12-12T18:31:36.461Z,6.35
2018-12-12T18:34:06.306Z,6.55
2018-12-12T18:36:35.416Z,7.20
2018-12-12T18:39:07.130Z,7.12
2018-12-12T18:41:36.491Z,6.92
2018-12-12T18:44:06.211Z,7.87
2018-12-12T18:46:36.630Z,6.72
2018-12-12T18:49:05.881Z,6.78
2018-12-12T18:51:35.021Z,7.12
2018-12-12T18:54:03.723Z,7.75
2018-12-12T18:56:32.516Z,6.20
2018-12-12T18:59:02.183Z,6.83
2018-12-12T19:01:31.899Z,4.92
2018-12-12T19:04:03.677Z,4.78
2018-12-12T19:06:36.085Z,4.72
2018-12-12T19:09:07.341Z,4.08
2018-12-12T19:11:37.287Z,3.30
2018-12-12T19:14:09.631Z,3.65
2018-12-12T19:16:39.400Z,3.22
2018-12-12T19:19:08.836Z,3.95
2018-12-12T19:21:39.080Z,4.25
2018-12-12T19:24:09.887Z,4.90
2018-12-12T19:26:40.005Z,4.90
2018-12-12T19:29:10.957Z,5.53
2018-12-12T19:31:41.083Z,5.60
2018-12-12T19:34:09.918Z,6.12
2018-12-12T19:36:38.946Z,6.20
2018-12-12T19:39:10.099Z,6.58
2018-12-12T19:41:40.456Z,7.05
2018-12-12T19:44:10.446Z,7.15
2018-12-12T19:46:39.270Z,7.03
2018-12-12T19:49:08.725Z,7.35
2018-12-12T19:51:38.499Z,7.08
2018-12-12T19:54:08.432Z,7.00
2018-12-12T19:56:39.417Z,8.50
2018-12-12T19:59:08.286Z,8.55
2018-12-12T20:01:37.256Z,8.85
2018-12-12T20:04:07.650Z,9.00
2018-12-12T20:06:36.615Z,9.08
2018-12-12T20:09:10.111Z,9.00
2018-12-12T20:11:42.147Z,7.90
2018-12-12T20:14:20.083Z,10.18
2018-12-12T20:16:51.471Z,10.30
2018-12-12T20:19:22.412Z,18.23
2018-12-12T20:21:51.951Z,10.48
2018-12-12T20:24:22.403Z,8.83
2018-12-12T20:26:53.060Z,8.08
2018-12-12T20:29:27.268Z,13.10
2018-12-12T20:32:01.234Z,11.40
2018-12-12T20:34:31.350Z,11.75
2018-12-12T20:37:08.038Z,20.10
2018-12-12T20:39:42.278Z,16.55
2018-12-12T20:42:15.534Z,13.18
2018-12-12T20:44:48.815Z,11.03
2018-12-12T20:47:24.926Z,10.28
2018-12-12T20:50:02.192Z,10.85
2018-12-12T20:52:34.739Z,10.98
2018-12-12T20:55:08.573Z,10.30
2018-12-12T20:57:42.291Z,12.13
2018-12-12T21:00:14.381Z,11.30
2018-12-12T21:02:45.561Z,10.90
2018-12-12T21:05:19.162Z,11.00
2018-12-12T21:07:52.665Z,10.55
2018-12-12T21:10:26.665Z,9.45
2018-12-12T21:12:57.663Z,11.83
2018-12-12T21:15:26.806Z,10.95
2018-12-12T21:17:57.713Z,10.20
2018-12-12T21:20:27.260Z,11.57
2018-12-12T21:23:03.450Z,11.90
2018-12-12T21:25:33.340Z,12.05
2018-12-12T21:28:03.133Z,11.20
2018-12-12T21:30:36.432Z,10.38
2018-12-12T21:33:06.838Z,11.73
2018-12-12T21:35:41.056Z,11.53
2018-12-12T21:38:11.518Z,13.85
2018-12-12T21:40:41.365Z,13.35
2018-12-12T21:43:13.571Z,8.88
2018-12-12T21:45:45.024Z,11.18
2018-12-12T21:48:16.147Z,9.25
2018-12-12T21:50:46.563Z,10.08
2018-12-12T21:53:15.686Z,10.13
2018-12-12T21:55:45.056Z,9.68
2018-12-12T21:58:13.732Z,7.60
2018-12-12T22:00:42.416Z,9.73
2018-12-12T22:03:12.909Z,9.43
2018-12-12T22:05:41.706Z,9.00
2018-12-12T22:08:10.673Z,8.80
2018-12-12T22:10:41.145Z,8.10
2018-12-12T22:13:09.706Z,8.85
2018-12-12T22:15:38.926Z,9.68
2018-12-12T22:18:07.562Z,8.63
2018-12-12T22:20:36.654Z,8.33
2018-12-12T22:23:06.112Z,9.55
2018-12-12T22:25:34.699Z,9.25
2018-12-12T22:28:10.457Z,8.68
2018-12-12T22:30:40.392Z,9.40
2018-12-12T22:33:11.305Z,8.95
2018-12-12T22:35:40.511Z,8.80
2018-12-12T22:38:09.911Z,8.68
2018-12-12T22:40:38.533Z,10.10
2018-12-12T22:43:07.298Z,8.20
2018-12-12T22:45:35.928Z,8.35
2018-12-12T22:48:05.594Z,9.28
2018-12-12T22:50:34.383Z,11.05
2018-12-12T22:53:02.959Z,10.13
2018-12-12T22:55:34.345Z,8.80
2018-12-12T22:58:02.844Z,10.30
2018-12-12T23:00:35.309Z,9.23
2018-12-12T23:03:04.221Z,9.25
2018-12-12T23:05:32.660Z,8.68
2018-12-12T23:08:01.338Z,8.70
2018-12-12T23:10:30.676Z,8.50
2018-12-12T23:12:59.210Z,7.95
2018-12-12T23:15:27.617Z,8.95
2018-12-12T23:17:56.090Z,9.15
2018-12-12T23:20:24.498Z,8.60
2018-12-12T23:22:52.958Z,8.10
2018-12-12T23:25:21.378Z,8.68
2018-12-12T23:27:49.825Z,9.35
2018-12-12T23:30:18.285Z,8.00
2018-12-12T23:32:46.712Z,8.88
2018-12-12T23:35:15.217Z,8.75
2018-12-12T23:37:44.242Z,8.68
2018-12-12T23:40:12.620Z,8.05
2018-12-12T23:42:41.217Z,9.30
2018-12-12T23:45:09.716Z,8.30
2018-12-12T23:47:38.004Z,8.65
2018-12-12T23:50:06.563Z,8.15
2018-12-12T23:52:35.057Z,8.48
2018-12-12T23:55:03.781Z,8.25
2018-12-12T23:57:32.223Z,8.60
